WIPP

Sultan Mahmud Badaruddin II Airport

Palembang-Sumatra Island, Indonesia
TAF WIPP 162300Z 1700/1712 11006KT 9999 FEW010
Issued Valid From Valid To
Jul-16 @ 23:00 UTC
(an hour ago)
Jul-17 @ 00:00 UTC
(23 minutes ago)
Jul-17 @ 12:00 UTC
(in 12 hours)
Jul-17 @ 00:00 to Jul-17 @ 12:00
TAF WIPP 162300Z 1700/1712 11006KT 9999 FEW010
Wind Visibility Clouds
110° at 6 knots 10,000+ meters
  • Few at 1,000' AGL
TAF WIPP 162300Z 1700/1712 11006KT 9999 FEW010
Issued Jul-16 @ 23:00 UTC
(an hour ago)
Valid From Jul-17 @ 00:00 UTC
(23 minutes ago)
Valid To Jul-17 @ 12:00 UTC
(in 12 hours)
Jul-17 @ 00:00 - Jul-17 @ 12:00
Wind Visibility
110° at 6 knots 10,000+ meters
Clouds
  • Few at 1,000' AGL